Time;durP1;ratioP1;P1;durP2;ratioP2;P2;SDS_P1;SDS_P2;PMS_P1;PMS_P2;Temp;Humidity;BMP_temperature;BMP_pressure;BME280_temperature;BME280_humidity;BME280_pressure;Samples;Min_cycle;Max_cycle;Signal;HPM_P1;HPM_P2
2023/03/04 00:00:47;;;;;;;67.10;43.70;;;;;;;8.80;52.85;99115.78;5095656;28;20027;-47
2023/03/04 00:03:14;;;;;;;60.05;42.10;;;;;;;8.63;52.78;99111.69;5095643;28;20379;-47
2023/03/04 00:05:42;;;;;;;62.13;44.53;;;;;;;8.60;52.74;99103.19;5095465;28;20016;-47
2023/03/04 00:08:09;;;;;;;58.72;45.83;;;;;;;8.59;52.76;99108.59;5094299;28;20095;-48
2023/03/04 00:10:36;;;;;;;68.75;45.35;;;;;;;8.30;53.36;99106.69;5094101;28;20093;-48
2023/03/04 00:13:03;;;;;;;60.13;40.65;;;;;;;8.26;53.73;99102.81;5094091;28;20505;-47
2023/03/04 00:15:30;;;;;;;58.42;44.42;;;;;;;8.38;53.19;99114.47;5095335;28;20124;-47
2023/03/04 00:17:56;;;;;;;69.82;46.45;;;;;;;8.28;53.53;99119.94;5095305;28;20107;-47
2023/03/04 00:20:37;;;;;;;71.32;53.25;;;;;;;8.00;54.49;99122.25;5093867;28;20101;-48
2023/03/04 00:23:09;;;;;;;63.75;43.25;;;;;;;7.89;55.07;99115.63;5093877;28;20028;-47
2023/03/04 00:25:40;;;;;;;60.67;43.90;;;;;;;7.92;55.58;99115.25;5093437;28;20059;-47
2023/03/04 00:28:07;;;;;;;57.72;38.38;;;;;;;8.01;55.03;99108.22;5093773;28;20119;-47
2023/03/04 00:30:33;;;;;;;64.57;43.00;;;;;;;8.13;55.29;99112.03;5076848;28;20028;-47
2023/03/04 00:33:19;;;;;;;64.40;40.63;;;;;;;8.24;55.16;99110.00;5093646;28;20032;-47
2023/03/04 00:35:52;;;;;;;63.88;42.42;;;;;;;8.44;54.02;99110.38;5079440;28;20028;-47
2023/03/04 00:38:18;;;;;;;57.85;40.72;;;;;;;8.55;53.82;99105.53;5094898;28;20070;-47
2023/03/04 00:41:02;;;;;;;69.28;51.20;;;;;;;8.62;54.21;99110.06;5093492;28;20063;-47
2023/03/04 00:43:39;;;;;;;70.18;44.97;;;;;;;8.69;53.68;99103.97;5094824;28;20481;-48
2023/03/04 00:46:04;;;;;;;53.83;38.03;;;;;;;8.68;52.71;99112.78;5094680;28;20077;-47
2023/03/04 00:48:33;;;;;;;62.38;42.42;;;;;;;8.58;53.17;99110.41;5094923;28;20024;-48
2023/03/04 00:51:06;;;;;;;63.88;45.47;;;;;;;8.41;53.66;99108.94;5093327;28;20024;-47
2023/03/04 00:53:36;;;;;;;59.97;42.53;;;;;;;8.30;53.99;99106.69;5093927;28;20020;-47
2023/03/04 00:56:08;;;;;;;61.13;40.83;;;;;;;8.36;54.08;99106.78;5094606;28;20501;-47
2023/03/04 00:58:41;;;;;;;67.82;43.78;;;;;;;8.40;53.95;99109.88;5094565;28;20419;-47
2023/03/04 01:01:18;;;;;;;66.22;43.88;;;;;;;8.34;54.41;99105.34;5093126;28;20050;-48
2023/03/04 01:03:45;;;;;;;64.45;43.10;;;;;;;8.38;54.53;99107.44;5094312;28;20447;-47
2023/03/04 01:06:12;;;;;;;68.22;46.05;;;;;;;8.52;54.26;99110.31;5094274;28;20016;-47
2023/03/04 01:08:38;;;;;;;64.10;41.90;;;;;;;8.66;54.28;99108.72;5093012;28;20054;-47
2023/03/04 01:11:11;;;;;;;67.03;41.47;;;;;;;8.75;53.60;99103.25;5092965;28;20020;-47
2023/03/04 01:13:44;;;;;;;65.60;42.05;;;;;;;8.80;53.65;99102.69;5094190;28;20031;-47
2023/03/04 01:16:14;;;;;;;63.63;41.42;;;;;;;8.89;53.28;99100.81;5094104;28;20024;-48
2023/03/04 01:18:41;;;;;;;54.45;40.42;;;;;;;8.95;53.00;99095.69;5094135;28;20051;-47
2023/03/04 01:21:24;;;;;;;58.38;42.03;;;;;;;8.90;52.78;99102.44;5094141;28;20031;-47
2023/03/04 01:23:54;;;;;;;56.33;40.42;;;;;;;8.82;53.71;99095.47;5092696;28;20035;-49
2023/03/04 01:26:21;;;;;;;60.15;41.38;;;;;;;8.83;52.91;99101.53;5106427;28;20521;-47
2023/03/04 01:28:56;;;;;;;52.13;39.15;;;;;;;8.85;53.09;99095.13;5114367;28;20032;-48
2023/03/04 01:31:29;;;;;;;71.75;44.97;;;;;;;8.82;53.21;99087.63;5114282;28;20106;-47
2023/03/04 01:34:03;;;;;;;66.07;45.70;;;;;;;8.82;52.77;99089.44;5114236;28;20028;-47
2023/03/04 01:36:30;;;;;;;68.95;49.90;;;;;;;8.92;52.56;99082.16;5113873;28;20520;-47
2023/03/04 01:38:59;;;;;;;61.25;40.70;;;;;;;8.85;52.61;99089.88;5095819;28;20026;-48
2023/03/04 01:41:27;;;;;;;67.93;42.08;;;;;;;8.75;52.60;99084.09;5095774;28;20119;-47
2023/03/04 01:44:05;;;;;;;56.65;41.55;;;;;;;8.74;52.61;99088.53;5095545;28;20016;-49
2023/03/04 01:46:36;;;;;;;56.15;39.88;;;;;;;8.78;52.71;99083.75;5113805;28;20024;-49
2023/03/04 01:49:34;;;;;;;64.15;40.97;;;;;;;8.90;53.47;99081.50;5095558;28;20099;-47
2023/03/04 01:52:32;;;;;;;68.32;39.97;;;;;;;8.97;52.80;99077.16;5113808;28;20043;-48
2023/03/04 01:55:33;;;;;;;52.83;38.17;;;;;;;8.97;52.25;99074.53;5112244;28;20036;-48
2023/03/04 01:58:11;;;;;;;66.28;42.08;;;;;;;8.90;52.54;99074.47;5114022;28;20375;-49
2023/03/04 02:00:39;;;;;;;61.65;42.15;;;;;;;8.82;52.85;99079.78;5095312;28;20027;-48
2023/03/04 02:06:01;;;;;;;67.45;40.70;;;;;;;8.70;53.31;99066.31;5113377;28;20119;-47
2023/03/04 02:08:35;;;;;;;61.28;41.70;;;;;;;8.54;53.67;99067.28;5113595;28;20129;-47
2023/03/04 02:11:04;;;;;;;60.53;41.45;;;;;;;8.45;54.40;99070.16;5113482;28;20046;-48
2023/03/04 02:13:36;;;;;;;63.30;40.95;;;;;;;8.43;54.34;99066.91;5113370;28;20122;-48
2023/03/04 02:16:09;;;;;;;63.90;42.47;;;;;;;8.46;54.42;99067.34;5113307;28;20027;-47
2023/03/04 02:18:44;;;;;;;68.78;44.63;;;;;;;8.54;54.08;99069.09;5113282;28;20065;-49
2023/03/04 02:21:39;;;;;;;58.45;42.00;;;;;;;8.40;54.13;99068.03;5113605;28;20038;-48
2023/03/04 02:24:32;;;;;;;66.60;40.90;;;;;;;8.46;54.32;99067.34;5094889;28;20032;-48
2023/03/04 02:27:11;;;;;;;73.50;44.90;;;;;;;8.56;54.29;99061.88;5110110;28;20075;-48
2023/03/04 02:29:38;;;;;;;64.53;40.63;;;;;;;8.51;53.94;99065.03;5094885;28;20506;-48
2023/03/04 02:32:05;;;;;;;60.17;41.78;;;;;;;8.58;53.52;99063.31;5094735;28;20027;-47
2023/03/04 02:34:53;;;;;;;55.90;40.40;;;;;;;8.68;53.25;99059.66;5094703;28;20035;-47
2023/03/04 02:37:28;;;;;;;59.40;41.22;;;;;;;8.73;53.43;99065.16;5112855;28;20023;-47
2023/03/04 02:39:57;;;;;;;60.20;42.97;;;;;;;8.89;53.02;99059.75;5094669;28;20028;-47
2023/03/04 02:42:37;;;;;;;55.88;40.85;;;;;;;8.99;52.55;99057.69;5094624;28;20053;-49
2023/03/04 02:45:59;;;;;;;57.22;41.40;;;;;;;8.85;52.32;99058.47;5112810;28;20072;-47
2023/03/04 02:48:28;;;;;;;60.90;41.33;;;;;;;8.79;52.84;99057.41;5068934;28;20050;-48
2023/03/04 02:50:56;;;;;;;61.05;40.15;;;;;;;8.91;52.80;99052.50;5112713;28;20023;-48
2023/03/04 02:53:28;;;;;;;65.03;40.88;;;;;;;8.92;52.75;99054.16;5094371;28;20401;-48
2023/03/04 02:56:01;;;;;;;58.72;40.15;;;;;;;8.99;52.36;99054.25;5094321;28;20118;-47
2023/03/04 02:58:31;;;;;;;61.05;40.95;;;;;;;8.92;52.22;99048.13;5112883;28;20435;-48
2023/03/04 03:01:05;;;;;;;57.53;39.95;;;;;;;8.82;52.75;99048.38;5094211;28;20111;-47
2023/03/04 03:03:32;;;;;;;58.33;39.55;;;;;;;8.90;52.59;99045.66;5077530;28;20059;-48
2023/03/04 03:06:04;;;;;;;56.40;39.33;;;;;;;8.99;52.49;99044.59;5094088;28;20051;-47
2023/03/04 03:08:30;;;;;;;57.15;39.30;;;;;;;8.93;52.49;99047.94;5112520;28;20103;-47
2023/03/04 03:10:58;;;;;;;61.88;39.95;;;;;;;8.88;52.76;99046.84;5112335;28;20104;-47
2023/03/04 03:13:40;;;;;;;59.30;40.17;;;;;;;8.78;52.88;99044.50;5112336;28;20439;-48
2023/03/04 03:16:07;;;;;;;60.95;37.25;;;;;;;8.82;53.05;99043.16;5112025;28;20011;-47
2023/03/04 03:18:51;;;;;;;59.25;40.00;;;;;;;8.99;52.76;99044.59;5077335;28;20024;-49
2023/03/04 03:21:36;;;;;;;58.75;39.45;;;;;;;9.06;52.51;99036.81;5112304;28;20026;-48
2023/03/04 03:24:23;;;;;;;60.20;40.75;;;;;;;9.09;52.27;99035.63;5112491;28;20496;-47
2023/03/04 03:27:11;;;;;;;58.28;41.78;;;;;;;8.99;52.54;99043.75;5090115;28;20066;-47
2023/03/04 03:29:45;;;;;;;;;;;;;;;8.92;52.37;99040.25;5092379;28;20040;-47
2023/03/04 03:32:12;;;;;;;54.33;37.45;;;;;;;8.88;52.69;99041.63;5092022;28;19911;-47
2023/03/04 03:35:08;;;;;;;54.78;38.50;;;;;;;9.00;52.59;99045.41;5090715;28;20032;-48
2023/03/04 03:37:37;;;;;;;;;;;;;;;9.14;52.83;99056.88;5092131;28;20028;-48
2023/03/04 03:40:12;;;;;;;59.97;38.53;;;;;;;9.13;52.61;99057.84;5090478;28;19969;-48
2023/03/04 03:42:51;;;;;;;58.35;38.47;;;;;;;9.04;52.77;99048.47;5090527;28;20028;-49
2023/03/04 03:45:34;;;;;;;63.35;40.55;;;;;;;8.93;52.45;99047.94;5090284;28;20024;-48
2023/03/04 03:48:15;;;;;;;57.08;40.60;;;;;;;9.08;52.80;99057.59;5091711;28;20020;-48
2023/03/04 03:50:45;;;;;;;59.90;40.15;;;;;;;9.15;52.51;99055.84;5091695;28;20035;-49
2023/03/04 03:53:15;;;;;;;57.67;37.55;;;;;;;9.14;52.44;99055.06;5091638;28;20028;-48
2023/03/04 03:55:50;;;;;;;59.75;39.35;;;;;;;9.11;52.91;99059.84;5091628;28;20030;-48
2023/03/04 03:58:22;;;;;;;68.97;41.85;;;;;;;9.13;52.90;99060.47;5091655;28;20018;-48
2023/03/04 04:00:54;;;;;;;60.03;39.65;;;;;;;9.13;53.40;99063.09;5091627;28;20020;-47
2023/03/04 04:03:24;;;;;;;57.60;41.58;;;;;;;9.15;52.96;99059.28;5091528;28;20024;-48
2023/03/04 04:05:57;;;;;;;63.08;39.83;;;;;;;9.28;52.72;99058.66;5091327;28;20027;-47
2023/03/04 04:08:37;;;;;;;62.30;39.95;;;;;;;9.34;52.49;99055.31;5091512;28;20069;-48
2023/03/04 04:11:18;;;;;;;55.05;41.03;;;;;;;9.30;52.30;99061.09;5073600;28;20032;-48
2023/03/04 04:13:53;;;;;;;62.25;41.83;;;;;;;9.27;52.61;99053.59;5090184;28;20028;-49
2023/03/04 04:16:35;;;;;;;61.30;40.80;;;;;;;9.34;52.51;99055.31;5090005;28;20020;-48
2023/03/04 04:19:39;;;;;;;63.20;41.75;;;;;;;9.38;52.14;99058.38;5090173;28;20573;-48
2023/03/04 04:22:27;;;;;;;61.70;39.92;;;;;;;9.54;52.09;99058.16;5091279;28;20083;-47
2023/03/04 04:25:05;;;;;;;58.22;42.58;;;;;;;9.44;51.89;99055.03;5091383;28;20028;-48
2023/03/04 04:27:43;;;;;;;57.42;41.95;;;;;;;9.39;52.15;99050.31;5090988;28;20036;-49
2023/03/04 04:30:16;;;;;;;61.22;42.72;;;;;;;9.35;52.44;99054.28;5093791;28;20035;-48
2023/03/04 04:33:03;;;;;;;77.53;57.35;;;;;;;9.22;52.40;99055.97;5093712;28;20024;-48
2023/03/04 04:35:37;;;;;;;67.97;48.95;;;;;;;9.07;52.89;99050.72;5095105;28;20026;-47
2023/03/04 04:38:04;;;;;;;66.30;46.38;;;;;;;9.15;53.37;99045.38;5094957;28;20568;-47
2023/03/04 04:40:39;;;;;;;68.53;45.20;;;;;;;9.17;54.10;99046.00;5093632;28;20031;-48
2023/03/04 04:43:16;;;;;;;63.42;45.25;;;;;;;9.11;53.61;99047.53;5094942;28;20032;-49
2023/03/04 04:45:46;;;;;;;63.65;44.70;;;;;;;9.09;53.77;99054.78;5093452;28;20034;-48
2023/03/04 04:48:24;;;;;;;69.50;46.28;;;;;;;9.04;54.01;99056.34;5093470;28;20115;-49
2023/03/04 04:50:55;;;;;;;63.42;46.63;;;;;;;8.97;54.35;99057.06;5094702;28;20054;-48
2023/03/04 04:53:24;;;;;;;69.68;45.97;;;;;;;9.04;54.18;99059.75;5093353;28;20031;-48
2023/03/04 04:55:51;;;;;;;62.33;45.35;;;;;;;9.06;54.01;99070.06;5094604;28;20491;-48
2023/03/04 04:58:25;;;;;;;62.53;43.80;;;;;;;8.95;54.28;99063.44;5094593;28;20096;-48
2023/03/04 05:00:56;;;;;;;69.22;47.42;;;;;;;9.04;54.42;99061.56;5094557;28;20024;-48
2023/03/04 05:03:26;;;;;;;64.38;43.38;;;;;;;9.11;54.64;99058.03;5094435;28;20583;-48
2023/03/04 05:05:52;;;;;;;65.45;44.70;;;;;;;9.24;54.02;99065.25;5092978;28;20043;-47
2023/03/04 05:08:24;;;;;;;60.10;44.08;;;;;;;9.30;54.40;99061.09;5093042;28;20020;-47
2023/03/04 05:11:07;;;;;;;70.18;44.75;;;;;;;9.44;54.66;99062.03;5092958;28;20036;-48
2023/03/04 05:13:36;;;;;;;57.10;43.33;;;;;;;9.61;54.02;99063.47;5092991;28;20497;-49
2023/03/04 05:16:05;;;;;;;63.28;42.13;;;;;;;9.71;53.66;99058.75;5094188;28;20024;-48
2023/03/04 05:18:32;;;;;;;59.80;41.17;;;;;;;9.85;53.61;99059.69;5092856;28;20020;-48
2023/03/04 05:21:02;;;;;;;68.65;43.97;;;;;;;9.98;53.34;99059.84;5092676;28;20031;-48
2023/03/04 05:23:32;;;;;;;65.05;43.55;;;;;;;10.06;52.62;99061.53;5092826;28;20409;-48
2023/03/04 05:26:00;;;;;;;60.25;43.58;;;;;;;10.02;52.28;99059.44;5096965;28;20054;-48
2023/03/04 05:28:27;;;;;;;71.50;44.20;;;;;;;9.95;52.45;99062.00;5114406;28;20035;-47
2023/03/04 05:30:56;;;;;;;67.78;43.15;;;;;;;9.87;52.51;99054.28;5096043;28;20069;-47
2023/03/04 05:33:25;;;;;;;58.97;41.88;;;;;;;9.82;52.38;99054.84;5114323;28;20019;-48
2023/03/04 05:35:53;;;;;;;59.70;44.78;;;;;;;9.69;52.30;99052.88;5114206;28;20047;-48
2023/03/04 05:38:21;;;;;;;59.20;43.25;;;;;;;9.53;52.24;99051.28;5113988;28;20055;-48
2023/03/04 05:40:50;;;;;;;59.88;42.58;;;;;;;9.45;52.08;99056.63;5114099;28;20024;-47
2023/03/04 05:43:17;;;;;;;60.78;44.70;;;;;;;9.27;52.32;99058.84;5114271;28;20374;-47
2023/03/04 05:45:44;;;;;;;59.22;42.75;;;;;;;9.16;52.77;99071.41;5113950;28;20496;-48
2023/03/04 05:48:11;;;;;;;64.93;44.45;;;;;;;9.10;53.26;99066.06;5113969;28;20100;-47
2023/03/04 05:50:39;;;;;;;62.40;44.63;;;;;;;9.18;53.80;99073.84;5095610;28;20019;-47
2023/03/04 05:53:06;;;;;;;63.47;42.50;;;;;;;9.17;53.70;99066.97;5113919;28;20023;-47
2023/03/04 05:55:33;;;;;;;67.13;47.70;;;;;;;9.17;53.63;99072.19;5113825;28;20111;-47
2023/03/04 05:58:09;;;;;;;;;;;;;;;;;;;;;
2023/03/04 06:01:00;;;;;;;61.38;42.97;;;;;;;9.46;54.36;99074.00;5112301;28;20508;-49
2023/03/04 06:03:44;;;;;;;62.17;44.20;;;;;;;9.67;54.05;99075.81;5113698;28;20034;-48
2023/03/04 06:06:22;;;;;;;65.78;45.28;;;;;;;9.68;53.18;99074.84;5113594;28;20023;-48
2023/03/04 06:08:51;;;;;;;60.45;43.38;;;;;;;9.63;53.91;99076.38;5095471;28;20027;-48
2023/03/04 06:11:37;;;;;;;68.97;43.30;;;;;;;9.92;53.80;99080.72;5095148;28;20043;-49
2023/03/04 06:14:16;;;;;;;65.53;44.30;;;;;;;10.21;53.54;99082.44;5113395;28;20027;-49
2023/03/04 06:16:51;;;;;;;64.85;43.72;;;;;;;10.45;52.48;99078.63;5095034;28;20020;-47
2023/03/04 06:19:25;;;;;;;57.40;44.03;;;;;;;10.68;51.46;99080.22;5095396;28;20118;-47
2023/03/04 06:21:56;;;;;;;64.63;43.60;;;;;;;10.74;51.15;99087.31;5094883;28;20032;-48
2023/03/04 06:24:29;;;;;;;65.00;43.78;;;;;;;10.68;51.29;99082.84;5113213;28;20019;-48
2023/03/04 06:26:58;;;;;;;62.28;42.08;;;;;;;10.68;51.01;99093.34;5111618;28;20047;-48
2023/03/04 06:29:25;;;;;;;68.28;44.40;;;;;;;10.64;51.59;99092.91;5113348;28;20035;-48
2023/03/04 06:32:10;;;;;;;62.70;44.75;;;;;;;10.67;51.61;99094.34;5094810;28;20072;-48
2023/03/04 06:34:44;;;;;;;57.65;40.13;;;;;;;10.52;50.92;99097.03;5094778;28;20490;-48
2023/03/04 06:37:16;;;;;;;63.50;45.10;;;;;;;10.39;52.22;99093.31;5094381;28;20035;-49
2023/03/04 06:39:44;;;;;;;61.88;42.60;;;;;;;10.53;51.76;99109.19;5078041;28;20110;-48
2023/03/04 06:42:14;;;;;;;61.80;43.10;;;;;;;10.66;51.83;99105.84;5112932;28;20020;-48
2023/03/04 06:44:41;;;;;;;61.30;44.80;;;;;;;10.82;51.53;99102.91;5112789;28;20102;-48
2023/03/04 06:47:08;;;;;;;56.55;42.47;;;;;;;10.81;51.09;99103.13;5112823;28;20558;-48
2023/03/04 06:49:36;;;;;;;58.58;41.85;;;;;;;10.87;50.53;99110.25;5094218;28;20107;-48
2023/03/04 06:52:03;;;;;;;71.60;42.35;;;;;;;10.98;50.78;99112.31;5112705;28;20102;-48
2023/03/04 06:54:30;;;;;;;60.92;43.00;;;;;;;11.12;50.62;99103.50;5112602;28;20042;-48
2023/03/04 06:56:58;;;;;;;66.72;44.88;;;;;;;11.28;50.33;99107.66;5112592;28;20019;-47
2023/03/04 06:59:25;;;;;;;60.30;42.90;;;;;;;11.35;49.67;99108.50;5094337;28;20023;-48
2023/03/04 07:02:01;;;;;;;65.50;44.08;;;;;;;11.27;49.73;99113.94;5112751;28;20036;-49
2023/03/04 07:04:34;;;;;;;61.95;40.67;;;;;;;11.15;50.05;99116.28;5094581;28;20023;-47
2023/03/04 07:07:01;;;;;;;60.60;44.15;;;;;;;11.26;50.29;99114.91;5112676;28;20111;-48
2023/03/04 07:09:44;;;;;;;65.45;43.75;;;;;;;11.33;49.75;99121.03;5077461;28;20080;-49
2023/03/04 07:12:12;;;;;;;55.13;42.63;;;;;;;11.30;49.42;99121.41;5112436;28;20389;-48
2023/03/04 07:14:39;;;;;;;62.63;46.63;;;;;;;11.30;49.51;99128.47;5112318;28;20081;-48
2023/03/04 07:17:07;;;;;;;66.30;44.65;;;;;;;11.38;50.06;99123.88;5112298;28;20023;-48
2023/03/04 07:19:35;;;;;;;66.05;43.80;;;;;;;11.51;49.37;99125.78;5094034;28;20102;-48
2023/03/04 07:22:01;;;;;;;64.65;43.03;;;;;;;11.51;49.03;99138.06;5112194;28;20034;-48
2023/03/04 07:24:28;;;;;;;67.68;45.67;;;;;;;11.28;49.71;99136.56;5093886;28;20024;-48
2023/03/04 07:26:59;;;;;;;65.93;42.75;;;;;;;11.36;49.96;99152.16;5090262;28;20082;-48
2023/03/04 07:29:41;;;;;;;66.13;44.03;;;;;;;11.23;49.42;99152.09;5090551;28;20048;-49
2023/03/04 07:32:16;;;;;;;66.00;43.25;;;;;;;11.03;49.74;99144.09;5091870;28;20024;-48
2023/03/04 07:35:00;;;;;;;67.50;43.78;;;;;;;11.12;50.46;99156.06;5091786;28;20028;-49
2023/03/04 07:37:31;;;;;;;57.85;42.60;;;;;;;11.09;49.55;99153.03;5091538;28;20028;-49
2023/03/04 07:40:19;;;;;;;58.42;41.75;;;;;;;10.97;50.18;99150.91;5090388;28;20028;-48
2023/03/04 07:43:12;;;;;;;57.13;41.15;;;;;;;11.20;50.15;99158.53;5091693;28;20047;-48
2023/03/04 07:45:42;;;;;;;60.70;42.15;;;;;;;11.32;49.31;99160.63;5090274;28;20032;-48
2023/03/04 07:48:09;;;;;;;71.38;44.10;;;;;;;11.30;48.55;99152.94;5091721;28;20520;-48
2023/03/04 07:50:36;;;;;;;61.78;42.38;;;;;;;11.07;49.45;99160.28;5090316;28;20032;-48
2023/03/04 07:53:03;;;;;;;59.38;40.47;;;;;;;11.00;49.94;99162.84;5091711;28;20484;-47
2023/03/04 07:55:30;;;;;;;54.00;41.58;;;;;;;10.85;49.73;99168.19;5091718;28;20042;-48
2023/03/04 07:57:57;;;;;;;58.72;45.35;;;;;;;10.73;50.69;99160.03;5091530;28;20020;-48
2023/03/04 08:00:24;;;;;;;58.40;42.78;;;;;;;10.63;51.09;99156.91;5091517;28;20470;-48
2023/03/04 08:02:52;;;;;;;66.68;41.42;;;;;;;10.76;50.29;99166.69;5095292;28;20051;-47
2023/03/04 08:05:19;;;;;;;68.15;45.15;;;;;;;10.62;49.98;99170.22;5095599;28;20027;-48
2023/03/04 08:07:46;;;;;;;66.03;45.42;;;;;;;10.54;51.28;99169.34;5094395;28;20054;-47
2023/03/04 08:10:32;;;;;;;59.90;43.53;;;;;;;10.76;51.60;99175.38;5095500;28;20036;-48
2023/03/04 08:12:59;;;;;;;58.65;42.33;;;;;;;10.98;50.58;99168.28;5095519;28;20024;-48
2023/03/04 08:15:27;;;;;;;59.53;41.72;;;;;;;11.28;50.43;99167.28;5095350;28;20042;-48
2023/03/04 08:17:55;;;;;;;57.28;41.28;;;;;;;11.54;49.00;99169.25;5095330;28;20020;-47
2023/03/04 08:20:24;;;;;;;60.80;44.00;;;;;;;11.43;49.14;99177.66;5093969;28;20397;-47
2023/03/04 08:22:53;;;;;;;68.63;44.53;;;;;;;11.23;49.49;99180.16;5095311;28;20024;-48
2023/03/04 08:25:21;;;;;;;59.08;42.97;;;;;;;11.14;49.67;99184.75;5095103;28;20028;-47
2023/03/04 08:27:50;;;;;;;59.67;41.25;;;;;;;11.16;49.41;99178.31;5112072;28;20139;-48
2023/03/04 08:30:17;;;;;;;62.67;42.00;;;;;;;11.20;49.43;99178.75;5115506;28;20055;-48
2023/03/04 08:32:44;;;;;;;66.30;41.17;;;;;;;11.11;49.23;99183.34;5115441;28;20020;-49
2023/03/04 08:35:25;;;;;;;60.85;39.65;;;;;;;11.16;49.57;99188.00;5115339;28;20097;-47
2023/03/04 08:37:54;;;;;;;56.70;38.97;;;;;;;11.12;48.86;99197.28;5096806;28;20131;-48
2023/03/04 08:40:23;;;;;;;48.53;36.33;;;;;;;10.99;49.48;99185.69;5096868;28;20115;-48
2023/03/04 08:42:51;;;;;;;54.58;37.75;;;;;;;11.23;49.70;99186.25;5115181;28;20041;-48
2023/03/04 08:45:18;;;;;;;51.65;39.10;;;;;;;11.54;48.95;99185.00;5115157;28;20027;-47
2023/03/04 08:47:47;;;;;;;57.25;39.67;;;;;;;11.61;48.04;99185.88;5115496;28;20038;-48
2023/03/04 08:50:16;;;;;;;53.20;39.10;;;;;;;11.52;48.49;99197.53;5097042;28;20398;-48
2023/03/04 08:52:43;;;;;;;60.25;38.03;;;;;;;11.56;48.87;99190.88;5115013;28;20027;-47
2023/03/04 08:55:10;;;;;;;50.60;36.80;;;;;;;11.82;48.28;99195.47;5096647;28;20024;-48
2023/03/04 08:57:40;;;;;;;53.67;36.97;;;;;;;12.10;47.29;99192.78;5114940;28;20032;-48
2023/03/04 09:00:18;;;;;;;52.75;38.20;;;;;;;12.37;47.19;99184.94;5114846;28;20024;-48
2023/03/04 09:02:45;;;;;;;51.42;37.10;;;;;;;12.53;46.05;99192.47;5114975;28;20036;-48
2023/03/04 09:05:15;;;;;;;59.47;40.40;;;;;;;12.73;46.04;99191.69;5114780;28;20019;-47
2023/03/04 09:07:45;;;;;;;52.17;38.17;;;;;;;12.83;45.43;99188.66;5096634;28;20024;-48
2023/03/04 09:10:12;;;;;;;51.83;37.88;;;;;;;13.03;44.93;99180.75;5114804;28;20393;-48
2023/03/04 09:12:40;;;;;;;58.15;39.20;;;;;;;13.25;44.21;99190.03;5114071;28;20490;-47
2023/03/04 09:15:10;;;;;;;51.97;36.58;;;;;;;13.34;44.41;99182.75;5114881;28;20035;-45
2023/03/04 09:17:38;;;;;;;48.53;37.22;;;;;;;13.45;43.42;99192.69;5114670;28;20370;-45
2023/03/04 09:20:09;;;;;;;51.10;36.45;;;;;;;13.40;43.59;99192.50;5096201;28;20039;-45
2023/03/04 09:22:39;;;;;;;50.38;37.92;;;;;;;13.28;43.78;99192.28;5096673;28;20038;-45
2023/03/04 09:25:07;;;;;;;52.00;37.20;;;;;;;13.34;44.08;99191.50;5114438;28;20111;-45
2023/03/04 09:27:34;;;;;;;54.20;36.83;;;;;;;13.43;43.39;99192.06;5114200;28;20051;-45
2023/03/04 09:30:14;;;;;;;45.30;36.33;;;;;;;13.14;44.23;99191.47;5114397;28;20024;-47
2023/03/04 09:32:57;;;;;;;53.92;39.13;;;;;;;13.18;44.43;99189.25;5114246;28;20059;-45
2023/03/04 09:35:29;;;;;;;48.13;38.08;;;;;;;13.35;44.94;99182.56;5114312;28;20027;-45
2023/03/04 09:37:58;;;;;;;50.95;36.40;;;;;;;13.58;44.07;99183.91;5095890;28;20123;-45
2023/03/04 09:40:40;;;;;;;55.67;36.78;;;;;;;13.83;44.05;99181.41;5114163;28;20241;-46
2023/03/04 09:43:30;;;;;;;48.65;38.05;;;;;;;14.19;43.58;99177.38;5095819;28;20026;-45
2023/03/04 09:46:05;;;;;;;49.17;39.03;;;;;;;14.26;42.82;99175.50;5114192;28;20080;-45
2023/03/04 09:48:47;;;;;;;49.13;37.83;;;;;;;14.41;42.47;99185.78;5096045;28;20466;-46
2023/03/04 09:51:48;;;;;;;50.80;35.22;;;;;;;14.86;42.38;99166.38;5114023;28;20027;-46
2023/03/04 09:54:58;;;;;;;46.58;35.28;;;;;;;15.35;40.90;99170.81;5113933;28;20072;-47
2023/03/04 09:57:46;;;;;;;55.17;37.13;;;;;;;15.17;40.80;99170.78;5114154;28;20044;-45
2023/03/04 10:00:45;;;;;;;47.00;36.63;;;;;;;15.21;40.67;99169.31;5095368;28;20503;-45
2023/03/04 10:03:24;;;;;;;47.65;36.20;;;;;;;15.64;40.43;99173.75;5095342;28;20032;-45
2023/03/04 10:06:09;;;;;;;44.97;35.47;;;;;;;15.73;39.44;99169.78;5095261;28;20028;-45
2023/03/04 10:09:03;;;;;;;50.88;38.78;;;;;;;15.74;39.47;99167.97;5095321;28;20032;-45
2023/03/04 10:11:37;;;;;;;49.78;38.50;;;;;;;15.59;38.86;99160.38;5113634;28;20084;-45
2023/03/04 10:14:19;;;;;;;48.85;36.17;;;;;;;15.36;39.91;99166.34;5113628;28;20024;-45
2023/03/04 10:17:01;;;;;;;51.13;37.47;;;;;;;15.50;39.70;99169.66;5095171;28;20622;-45
2023/03/04 10:19:48;;;;;;;47.13;35.70;;;;;;;15.58;39.17;99162.22;5095173;28;20045;-46
2023/03/04 10:22:42;;;;;;;46.40;37.42;;;;;;;15.42;38.72;99164.66;5095137;28;20019;-45
2023/03/04 10:25:28;;;;;;;48.40;36.78;;;;;;;15.45;39.14;99167.63;5112285;28;20050;-46
2023/03/04 10:28:26;;;;;;;50.00;36.28;;;;;;;15.33;39.30;99162.28;5112680;28;20461;-46
2023/03/04 10:31:11;;;;;;;44.47;34.45;;;;;;;15.50;39.13;99159.06;5094597;28;20034;-47
2023/03/04 10:33:54;;;;;;;48.92;37.33;;;;;;;15.88;38.85;99163.34;5094863;28;20030;-47
2023/03/04 10:36:31;;;;;;;51.13;37.45;;;;;;;15.88;38.40;99156.19;5113077;28;20580;-46
2023/03/04 10:39:38;;;;;;;52.05;37.53;;;;;;;15.88;38.53;99144.81;5112987;28;20042;-46
2023/03/04 10:42:36;;;;;;;49.35;36.35;;;;;;;16.02;38.33;99148.06;5112856;28;20020;-46
2023/03/04 10:45:34;;;;;;;46.45;36.30;;;;;;;16.54;37.46;99143.03;5112737;28;20031;-46
2023/03/04 10:48:31;;;;;;;50.53;36.45;;;;;;;16.87;37.31;99139.88;5112836;28;20110;-46
2023/03/04 10:51:30;;;;;;;47.78;36.50;;;;;;;17.12;36.42;99141.50;5112690;28;20159;-46
2023/03/04 10:54:40;;;;;;;50.47;38.85;;;;;;;17.29;36.29;99136.31;5093486;28;20032;-46
2023/03/04 10:57:43;;;;;;;50.80;38.25;;;;;;;17.01;36.09;99131.72;5112714;28;20031;-45
2023/03/04 11:00:42;;;;;;;49.67;38.50;;;;;;;16.84;36.76;99139.53;5112710;28;20481;-46
2023/03/04 11:03:30;;;;;;;51.22;39.65;;;;;;;17.07;36.39;99136.09;5100011;28;20557;-46
2023/03/04 11:06:19;;;;;;;51.33;38.35;;;;;;;17.31;35.94;99142.97;5112421;28;20020;-46
2023/03/04 11:08:58;;;;;;;45.75;36.45;;;;;;;17.52;35.71;99133.59;5112585;28;20036;-46
2023/03/04 11:11:50;;;;;;;51.60;38.28;;;;;;;17.64;34.99;99133.56;5094376;28;20068;-46
2023/03/04 11:14:50;;;;;;;47.22;38.13;;;;;;;17.86;34.40;99128.44;5112538;28;20106;-46
2023/03/04 11:17:28;;;;;;;46.50;36.75;;;;;;;17.93;34.62;99129.13;5094034;28;20107;-46
2023/03/04 11:20:17;;;;;;;48.35;38.85;;;;;;;18.04;33.90;99132.75;5112488;28;20560;-46
2023/03/04 11:23:22;;;;;;;53.85;37.58;;;;;;;17.86;34.52;99130.28;5112280;28;20102;-47
2023/03/04 11:26:22;;;;;;;45.75;36.05;;;;;;;17.84;34.79;99119.09;5093389;28;20027;-47
2023/03/04 11:29:22;;;;;;;49.15;37.05;;;;;;;17.88;34.28;99122.91;5071835;28;20033;-47
2023/03/04 11:32:01;;;;;;;46.72;38.70;;;;;;;17.81;34.33;99127.50;5071703;28;20036;-46
2023/03/04 11:34:40;;;;;;;47.13;37.17;;;;;;;17.96;34.38;99125.16;5071777;28;20035;-46
2023/03/04 11:37:30;;;;;;;45.70;39.05;;;;;;;17.87;34.02;99121.31;5071454;28;20031;-46
2023/03/04 11:40:14;;;;;;;47.47;38.90;;;;;;;17.43;34.93;99115.63;5071767;28;20032;-46
2023/03/04 11:43:25;;;;;;;52.45;40.05;;;;;;;17.60;34.41;99108.53;5071659;28;20490;-46
2023/03/04 11:46:31;;;;;;;50.45;38.95;;;;;;;17.44;35.28;99109.28;5071515;28;20440;-46
2023/03/04 11:49:30;;;;;;;50.20;36.97;;;;;;;18.04;34.64;99105.41;5070308;28;20058;-47
2023/03/04 11:52:59;;;;;;;50.28;38.28;;;;;;;18.87;33.31;99097.69;5071554;28;20032;-47
2023/03/04 11:56:10;;;;;;;51.15;37.85;;;;;;;19.01;33.03;99093.66;5071407;28;20486;-45
2023/03/04 11:59:13;;;;;;;50.00;36.55;;;;;;;19.33;32.87;99091.13;5071406;28;20383;-46
2023/03/04 12:02:20;;;;;;;47.15;36.47;;;;;;;19.40;32.36;99088.31;5071481;28;20398;-46
2023/03/04 12:05:06;;;;;;;48.35;36.88;;;;;;;19.62;32.17;99076.81;5066926;28;20067;-46
2023/03/04 12:08:15;;;;;;;48.10;36.72;;;;;;;20.23;31.33;99063.31;5070067;28;20029;-46
2023/03/04 12:11:12;;;;;;;45.15;36.67;;;;;;;20.13;30.66;99072.81;5071367;28;20028;-46